Time;durP1;ratioP1;P1;durP2;ratioP2;P2;SDS_P1;SDS_P2;PMS_P1;PMS_P2;Temp;Humidity;BMP_temperature;BMP_pressure;BME280_temperature;BME280_humidity;BME280_pressure;Samples;Min_cycle;Max_cycle;Signal;HPM_P1;HPM_P2
2021/09/26 00:00:15;;;;;;;6.88;1.98;;;18.70;82.60;;;;;;5036595;28;20115;-70
2021/09/26 00:02:43;;;;;;;2.35;1.55;;;18.60;82.50;;;;;;5037850;28;20021;-72
2021/09/26 00:05:11;;;;;;;7.57;2.70;;;18.70;82.60;;;;;;5036691;28;20021;-73
2021/09/26 00:07:38;;;;;;;5.50;2.03;;;18.70;82.70;;;;;;5037414;28;20025;-72
2021/09/26 00:10:07;;;;;;;3.45;1.65;;;18.70;82.80;;;;;;5036558;28;20361;-74
2021/09/26 00:12:33;;;;;;;5.85;1.70;;;18.70;82.80;;;;;;5035122;28;20361;-71
2021/09/26 00:15:01;;;;;;;3.78;1.63;;;18.70;82.80;;;;;;5034463;28;20591;-71
2021/09/26 00:17:27;;;;;;;2.72;1.48;;;18.70;82.80;;;;;;5034799;28;20544;-71
2021/09/26 00:19:54;;;;;;;3.95;1.45;;;18.70;82.90;;;;;;5036327;28;20445;-71
2021/09/26 00:22:21;;;;;;;4.78;1.38;;;18.70;83.00;;;;;;5035864;28;20021;-70
2021/09/26 00:24:47;;;;;;;5.20;1.55;;;18.70;83.20;;;;;;5037640;28;20495;-73
2021/09/26 00:27:14;;;;;;;6.07;1.52;;;18.60;83.30;;;;;;5034675;28;20028;-73
2021/09/26 00:29:41;;;;;;;6.03;1.40;;;18.60;83.40;;;;;;5038516;28;20055;-71
2021/09/26 00:32:08;;;;;;;3.00;1.30;;;18.70;83.50;;;;;;5039158;28;20075;-71
2021/09/26 00:34:35;;;;;;;4.78;2.25;;;18.60;83.60;;;;;;5040278;28;20372;-71
2021/09/26 00:37:10;;;;;;;3.40;1.13;;;18.60;83.60;;;;;;5039733;28;20017;-72
2021/09/26 00:39:37;;;;;;;3.75;1.50;;;18.70;83.80;;;;;;5036574;28;20025;-72
2021/09/26 00:42:04;;;;;;;3.53;1.50;;;18.70;83.80;;;;;;5036915;28;20388;-71
2021/09/26 00:44:31;;;;;;;5.28;2.17;;;18.60;83.80;;;;;;5038032;28;20025;-74
2021/09/26 00:46:58;;;;;;;5.38;2.30;;;18.70;83.90;;;;;;5040044;28;20812;-72
2021/09/26 00:49:25;;;;;;;8.88;1.52;;;18.60;83.80;;;;;;5039196;28;20017;-71
2021/09/26 00:51:52;;;;;;;5.43;2.10;;;18.60;83.90;;;;;;5038476;28;20496;-71
2021/09/26 00:54:19;;;;;;;5.43;3.17;;;18.60;84.30;;;;;;5039201;28;20024;-71
2021/09/26 00:56:52;;;;;;;7.32;2.40;;;18.60;84.50;;;;;;5039809;28;20123;-72
2021/09/26 00:59:21;;;;;;;6.43;2.55;;;18.60;84.90;;;;;;5039804;28;20075;-72
2021/09/26 01:01:48;;;;;;;9.63;2.40;;;18.60;85.40;;;;;;5041778;28;20441;-71
2021/09/26 01:04:19;;;;;;;7.65;4.82;;;18.60;86.10;;;;;;5039639;28;20484;-71
2021/09/26 01:07:05;;;;;;;6.35;2.40;;;18.50;85.70;;;;;;5039880;28;20025;-70
2021/09/26 01:09:51;;;;;;;11.60;2.78;;;18.50;85.70;;;;;;5037410;28;20213;-71
2021/09/26 01:12:36;;;;;;;6.13;3.50;;;18.50;85.70;;;;;;5037514;28;20116;-72
2021/09/26 01:15:10;;;;;;;7.70;3.78;;;18.50;85.70;;;;;;5036050;28;20024;-73
2021/09/26 01:17:45;;;;;;;10.00;2.75;;;18.40;85.70;;;;;;5038623;28;20064;-73
2021/09/26 01:20:32;;;;;;;11.15;4.80;;;18.40;86.10;;;;;;5040489;28;20449;-71
2021/09/26 01:23:04;;;;;;;4.38;2.72;;;18.40;86.30;;;;;;5037054;28;20035;-73
2021/09/26 01:25:52;;;;;;;6.72;2.22;;;18.40;86.30;;;;;;5039373;28;20052;-71
2021/09/26 01:28:32;;;;;;;9.63;2.67;;;18.40;86.10;;;;;;5039048;28;20116;-71
2021/09/26 01:31:16;;;;;;;10.65;2.50;;;18.40;86.00;;;;;;5036829;28;20377;-72
2021/09/26 01:34:05;;;;;;;9.18;3.13;;;18.40;86.00;;;;;;5037917;28;20447;-71
2021/09/26 01:36:41;;;;;;;12.07;3.05;;;18.40;86.10;;;;;;5008277;28;20245;-72
2021/09/26 01:39:28;;;;;;;7.68;2.83;;;18.30;86.20;;;;;;5040907;28;20028;-72
2021/09/26 01:42:22;;;;;;;8.35;2.78;;;18.40;86.30;;;;;;5041655;28;20484;-72
2021/09/26 01:45:06;;;;;;;13.77;3.28;;;18.30;86.40;;;;;;5036336;28;20124;-73
2021/09/26 01:47:42;;;;;;;8.15;3.28;;;18.40;86.50;;;;;;5038518;28;20009;-73
2021/09/26 01:50:15;;;;;;;13.05;2.45;;;18.30;86.60;;;;;;5039116;28;20435;-73
2021/09/26 01:52:45;;;;;;;13.80;4.38;;;18.30;86.70;;;;;;5037715;28;20372;-71
2021/09/26 01:55:13;;;;;;;16.10;3.95;;;18.30;86.80;;;;;;5038080;28;20029;-73
2021/09/26 01:57:41;;;;;;;8.88;3.03;;;18.30;86.70;;;;;;5035733;28;20037;-71
2021/09/26 02:00:10;;;;;;;7.95;3.55;;;18.30;86.80;;;;;;5037574;28;20060;-72
2021/09/26 02:02:42;;;;;;;12.23;3.53;;;18.30;86.80;;;;;;5040150;28;20028;-72
2021/09/26 02:05:13;;;;;;;13.68;4.10;;;18.30;86.90;;;;;;5038112;28;20084;-71
2021/09/26 02:07:44;;;;;;;7.53;3.53;;;18.30;87.10;;;;;;5036401;28;20143;-71
2021/09/26 02:10:11;;;;;;;10.07;3.95;;;18.20;88.00;;;;;;5037896;28;20050;-71
2021/09/26 02:12:38;;;;;;;7.10;2.90;;;18.20;87.60;;;;;;5036845;28;20211;-72
2021/09/26 02:15:11;;;;;;;14.25;5.57;;;18.20;87.70;;;;;;5036499;28;20017;-71
2021/09/26 02:17:39;;;;;;;9.02;4.22;;;18.20;87.90;;;;;;5037176;28;20481;-71
2021/09/26 02:20:07;;;;;;;7.85;3.40;;;18.20;88.30;;;;;;5038253;28;20543;-71
2021/09/26 02:22:41;;;;;;;11.55;5.32;;;18.20;88.50;;;;;;5037229;28;20017;-73
2021/09/26 02:25:13;;;;;;;13.05;4.65;;;18.20;88.80;;;;;;5039184;28;20045;-71
2021/09/26 02:27:44;;;;;;;7.88;3.90;;;18.20;88.80;;;;;;5035632;28;20388;-71
2021/09/26 02:30:13;;;;;;;9.93;4.05;;;18.20;88.90;;;;;;5038564;28;20049;-73
2021/09/26 02:32:40;;;;;;;7.95;3.70;;;18.20;88.60;;;;;;5036820;28;20125;-72
2021/09/26 02:35:11;;;;;;;10.80;3.33;;;18.20;88.70;;;;;;5040039;28;20022;-73
2021/09/26 02:37:37;;;;;;;10.23;4.63;;;18.20;88.70;;;;;;5035978;28;20040;-72
2021/09/26 02:40:06;;;;;;;8.57;4.13;;;18.20;88.60;;;;;;5035970;28;20041;-72
2021/09/26 02:42:54;;;;;;;10.70;3.80;;;18.20;88.60;;;;;;5036440;28;20353;-71
2021/09/26 02:45:45;;;;;;;13.07;4.18;;;18.20;88.80;;;;;;5035837;28;20026;-71
2021/09/26 02:48:22;;;;;;;8.25;3.33;;;18.20;89.00;;;;;;5037064;28;20018;-71
2021/09/26 02:50:51;;;;;;;10.15;3.60;;;18.20;88.70;;;;;;5037714;28;20105;-71
2021/09/26 02:53:19;;;;;;;9.18;3.20;;;18.10;88.90;;;;;;5034762;28;20472;-73
2021/09/26 02:55:49;;;;;;;5.32;3.05;;;18.10;89.00;;;;;;5037154;28;20045;-71
2021/09/26 02:58:16;;;;;;;11.43;3.75;;;18.10;89.10;;;;;;5037368;28;20484;-71
2021/09/26 03:00:45;;;;;;;9.60;3.90;;;18.10;89.20;;;;;;5037823;28;20128;-71
2021/09/26 03:03:18;;;;;;;11.07;4.20;;;18.10;89.40;;;;;;5037036;28;20074;-71
2021/09/26 03:05:46;;;;;;;8.93;3.60;;;18.10;89.40;;;;;;5038456;28;20021;-72
2021/09/26 03:08:14;;;;;;;11.35;5.15;;;18.10;89.50;;;;;;5036801;28;20013;-71
2021/09/26 03:10:44;;;;;;;16.15;5.68;;;18.10;89.50;;;;;;5040835;28;20021;-73
2021/09/26 03:13:10;;;;;;;8.43;3.88;;;18.10;89.60;;;;;;5041318;28;20016;-72
2021/09/26 03:15:37;;;;;;;8.10;3.90;;;18.10;89.50;;;;;;5040067;28;20053;-71
2021/09/26 03:18:04;;;;;;;10.73;5.10;;;18.10;89.50;;;;;;5039865;28;20036;-71
2021/09/26 03:20:31;;;;;;;14.23;5.78;;;18.10;89.50;;;;;;5041973;28;20537;-72
2021/09/26 03:22:58;;;;;;;10.15;5.07;;;18.10;89.60;;;;;;5039746;28;20016;-73
2021/09/26 03:25:24;;;;;;;10.43;4.40;;;18.10;89.60;;;;;;5041028;28;20021;-71
2021/09/26 03:27:51;;;;;;;6.78;3.58;;;18.10;89.60;;;;;;5038939;28;20025;-71
2021/09/26 03:30:18;;;;;;;10.35;4.22;;;18.10;89.70;;;;;;5041127;28;20056;-73
2021/09/26 03:33:24;;;;;;;15.57;4.47;;;18.10;90.10;;;;;;5040835;28;20534;-73
2021/09/26 03:35:50;;;;;;;8.00;4.45;;;18.10;89.80;;;;;;5040465;28;20300;-73
2021/09/26 03:38:17;;;;;;;14.98;5.22;;;18.10;89.60;;;;;;5040225;28;20032;-73
2021/09/26 03:40:44;;;;;;;10.52;5.30;;;18.10;89.60;;;;;;5037998;28;20086;-72
2021/09/26 03:43:11;;;;;;;8.85;5.00;;;18.10;89.50;;;;;;5039842;28;20071;-71
2021/09/26 03:45:37;;;;;;;7.28;4.18;;;18.10;89.50;;;;;;5038327;28;20029;-74
2021/09/26 03:48:04;;;;;;;8.20;4.82;;;18.00;89.40;;;;;;5039894;28;20022;-71
2021/09/26 03:50:31;;;;;;;15.02;4.18;;;18.00;90.00;;;;;;5038878;28;20027;-71
2021/09/26 03:52:57;;;;;;;13.48;4.57;;;18.00;89.30;;;;;;5038648;28;20107;-71
2021/09/26 03:55:24;;;;;;;5.70;4.63;;;18.00;89.50;;;;;;5040973;28;20025;-71
2021/09/26 03:57:50;;;;;;;9.23;4.38;;;18.00;89.40;;;;;;5039441;28;20036;-72
2021/09/26 04:00:19;;;;;;;8.07;3.80;;;18.00;89.30;;;;;;5040721;28;20156;-73
2021/09/26 04:02:46;;;;;;;11.77;4.55;;;18.00;89.30;;;;;;5039302;28;20040;-72
2021/09/26 04:05:12;;;;;;;10.00;3.80;;;18.00;89.30;;;;;;5041349;28;20032;-71
2021/09/26 04:07:42;;;;;;;18.23;11.43;;;17.90;89.30;;;;;;5039714;28;20025;-72
2021/09/26 04:10:10;;;;;;;12.35;7.25;;;17.90;89.40;;;;;;5040724;28;20063;-72
2021/09/26 04:12:37;;;;;;;11.82;6.43;;;17.90;89.30;;;;;;5038442;28;20013;-74
2021/09/26 04:15:08;;;;;;;9.68;4.55;;;17.90;89.40;;;;;;5037301;28;20020;-74
2021/09/26 04:17:35;;;;;;;11.35;3.88;;;18.00;89.50;;;;;;5038797;28;20037;-73
2021/09/26 04:20:04;;;;;;;6.30;3.45;;;17.90;89.40;;;;;;5038215;28;20025;-71
2021/09/26 04:22:31;;;;;;;6.82;3.65;;;17.90;89.40;;;;;;5038865;28;20016;-71
2021/09/26 04:24:57;;;;;;;5.18;2.50;;;17.90;89.50;;;;;;5037210;28;20036;-71
2021/09/26 04:27:24;;;;;;;5.40;2.65;;;17.90;89.50;;;;;;5040645;28;20026;-71
2021/09/26 04:29:52;;;;;;;33.60;4.68;;;18.00;89.40;;;;;;5038331;28;20377;-73
2021/09/26 04:32:20;;;;;;;5.30;2.38;;;17.90;89.20;;;;;;5038612;28;20028;-71
2021/09/26 04:34:49;;;;;;;7.60;2.80;;;18.00;89.20;;;;;;5040047;28;20118;-69
2021/09/26 04:37:16;;;;;;;13.43;10.48;;;18.00;89.20;;;;;;5039589;28;20143;-68
2021/09/26 04:39:43;;;;;;;19.48;13.85;;;18.00;89.20;;;;;;5039973;28;20448;-70
2021/09/26 04:42:10;;;;;;;5.65;3.00;;;18.00;89.10;;;;;;5039273;28;20036;-67
2021/09/26 04:44:36;;;;;;;3.47;2.28;;;18.00;88.90;;;;;;5037448;28;20014;-68
2021/09/26 04:47:03;;;;;;;10.55;3.58;;;18.00;89.00;;;;;;5049431;28;20044;-72
2021/09/26 04:49:29;;;;;;;8.23;3.38;;;18.00;89.00;;;;;;5042870;28;20021;-69
2021/09/26 04:52:00;;;;;;;10.80;3.33;;;18.00;89.10;;;;;;5045770;28;20534;-68
2021/09/26 04:54:27;;;;;;;10.93;3.40;;;18.00;89.30;;;;;;5045406;28;20443;-68
2021/09/26 04:56:54;;;;;;;6.35;4.35;;;18.00;89.50;;;;;;5045844;28;20036;-69
2021/09/26 04:59:21;;;;;;;11.13;4.35;;;18.00;89.60;;;;;;5041714;28;20124;-71
2021/09/26 05:01:48;;;;;;;8.15;3.42;;;18.00;89.70;;;;;;5044211;28;20014;-71
2021/09/26 05:04:15;;;;;;;7.55;3.17;;;18.00;89.70;;;;;;5047041;28;20150;-72
2021/09/26 05:06:41;;;;;;;7.32;3.35;;;18.00;89.60;;;;;;5044054;28;20396;-71
2021/09/26 05:09:08;;;;;;;8.63;3.10;;;18.00;89.60;;;;;;5043481;28;20179;-69
2021/09/26 05:11:34;;;;;;;5.85;3.90;;;18.00;89.70;;;;;;5046137;28;20024;-71
2021/09/26 05:14:01;;;;;;;8.25;3.30;;;18.00;89.60;;;;;;5047501;28;20017;-69
2021/09/26 05:16:27;;;;;;;4.85;3.08;;;18.10;89.60;;;;;;5045797;28;20023;-68
2021/09/26 05:18:53;;;;;;;6.40;3.15;;;18.00;89.60;;;;;;5047518;28;20523;-70
2021/09/26 05:21:20;;;;;;;6.90;3.40;;;18.10;89.60;;;;;;5043737;28;20010;-69
2021/09/26 05:23:47;;;;;;;44.70;34.28;;;18.10;89.40;;;;;;5044153;28;20025;-68
2021/09/26 05:26:13;;;;;;;26.40;18.48;;;18.10;89.50;;;;;;5042557;28;20055;-74
2021/09/26 05:28:40;;;;;;;9.98;4.47;;;18.10;89.30;;;;;;5040696;28;20377;-71
2021/09/26 05:31:06;;;;;;;5.05;2.70;;;18.10;88.90;;;;;;5045035;28;20029;-70
2021/09/26 05:33:33;;;;;;;7.13;3.67;;;18.10;88.80;;;;;;5043770;28;21098;-71
2021/09/26 05:36:00;;;;;;;9.57;2.65;;;18.10;89.00;;;;;;5040523;28;20029;-74
2021/09/26 05:38:27;;;;;;;4.25;2.40;;;18.10;89.00;;;;;;5041743;28;20039;-70
2021/09/26 05:40:53;;;;;;;7.13;3.80;;;18.20;88.80;;;;;;5045727;28;20013;-70
2021/09/26 05:43:20;;;;;;;6.53;4.22;;;18.20;88.80;;;;;;5040419;28;20025;-70
2021/09/26 05:45:48;;;;;;;5.97;3.42;;;18.20;88.90;;;;;;5042421;28;20060;-71
2021/09/26 05:48:14;;;;;;;9.25;3.30;;;18.20;88.70;;;;;;5046852;28;20056;-75
2021/09/26 05:50:41;;;;;;;8.68;4.97;;;18.30;88.60;;;;;;5042959;28;20040;-71
2021/09/26 05:53:07;;;;;;;30.67;25.88;;;18.30;88.70;;;;;;5041696;28;20024;-72
2021/09/26 05:55:34;;;;;;;10.32;7.00;;;18.30;88.40;;;;;;5043230;28;20037;-71
2021/09/26 05:58:00;;;;;;;7.20;5.05;;;18.30;87.90;;;;;;5043572;28;20032;-74
2021/09/26 06:00:27;;;;;;;10.50;4.30;;;18.30;87.80;;;;;;5047357;28;20058;-74
2021/09/26 06:02:54;;;;;;;6.50;3.95;;;18.40;87.80;;;;;;5042452;28;20140;-71
2021/09/26 06:05:23;;;;;;;9.63;6.70;;;18.40;87.70;;;;;;5045256;28;20025;-75
2021/09/26 06:07:51;;;;;;;8.88;6.32;;;18.40;87.10;;;;;;5043325;28;20142;-72
2021/09/26 06:10:17;;;;;;;7.18;5.72;;;18.40;87.10;;;;;;5043439;28;20045;-71
2021/09/26 06:12:44;;;;;;;10.68;6.00;;;18.50;87.10;;;;;;5041112;28;20407;-73
2021/09/26 06:15:12;;;;;;;11.77;6.60;;;18.40;86.80;;;;;;5042971;28;20495;-72
2021/09/26 06:17:38;;;;;;;18.40;8.27;;;18.40;86.80;;;;;;5044362;28;20159;-74
2021/09/26 06:20:05;;;;;;;11.27;7.85;;;18.50;87.00;;;;;;5041939;28;20067;-71
2021/09/26 06:22:32;;;;;;;18.17;10.43;;;18.50;87.20;;;;;;5047303;28;20013;-73
2021/09/26 06:24:59;;;;;;;14.40;9.45;;;18.60;87.20;;;;;;5044264;28;20013;-71
2021/09/26 06:27:26;;;;;;;16.90;9.35;;;18.60;87.30;;;;;;5044595;28;20019;-71
2021/09/26 06:29:53;;;;;;;22.42;9.77;;;18.60;87.40;;;;;;5045901;28;20025;-79
2021/09/26 06:32:20;;;;;;;19.38;9.13;;;18.60;87.40;;;;;;5042845;28;20032;-72
2021/09/26 06:34:46;;;;;;;17.77;8.02;;;18.70;87.30;;;;;;5043432;28;20052;-74
2021/09/26 06:37:13;;;;;;;14.93;7.85;;;18.70;87.20;;;;;;5043164;28;20017;-73
2021/09/26 06:39:39;;;;;;;14.68;7.53;;;18.70;87.00;;;;;;5042635;28;20014;-72
2021/09/26 06:42:06;;;;;;;12.98;7.78;;;18.70;87.20;;;;;;5042265;28;20527;-70
2021/09/26 06:44:33;;;;;;;12.10;8.18;;;18.70;87.20;;;;;;5047661;28;20070;-74
2021/09/26 06:46:59;;;;;;;12.40;7.70;;;18.80;87.00;;;;;;5049141;28;20009;-72
2021/09/26 06:49:26;;;;;;;11.40;7.45;;;18.80;86.50;;;;;;5046055;28;20468;-74
2021/09/26 06:51:52;;;;;;;13.30;7.82;;;18.80;86.40;;;;;;5047329;28;20366;-76
2021/09/26 06:54:19;;;;;;;12.60;7.97;;;18.90;86.30;;;;;;5047915;28;20056;-74
2021/09/26 06:57:25;;;;;;;12.38;7.53;;;18.90;86.00;;;;;;5045554;28;20021;-75
2021/09/26 07:00:31;;;;;;;14.73;7.75;;;18.90;85.90;;;;;;5049471;28;20055;-73
2021/09/26 07:03:37;;;;;;;13.23;6.82;;;19.00;85.60;;;;;;5044013;28;20021;-73
2021/09/26 07:06:43;;;;;;;15.20;8.07;;;19.00;85.30;;;;;;5047792;28;20027;-74
2021/09/26 07:09:49;;;;;;;11.18;6.28;;;19.10;85.00;;;;;;5047612;28;20123;-74
2021/09/26 07:12:55;;;;;;;9.35;5.53;;;19.10;84.80;;;;;;5036182;28;20116;-75
2021/09/26 07:16:01;;;;;;;14.05;6.90;;;19.20;84.60;;;;;;5046454;28;20036;-75
2021/09/26 07:18:57;;;;;;;11.90;8.68;;;19.30;84.40;;;;;;5040779;28;20038;-72
2021/09/26 07:21:23;;;;;;;22.88;11.10;;;19.40;84.00;;;;;;5035079;28;20025;-73
2021/09/26 07:23:50;;;;;;;10.57;6.35;;;19.40;83.70;;;;;;5038974;28;20524;-72
2021/09/26 07:26:17;;;;;;;8.40;5.30;;;19.50;83.50;;;;;;5037219;28;20815;-73
2021/09/26 07:28:43;;;;;;;10.00;4.60;;;19.60;83.00;;;;;;5038316;28;20388;-75
2021/09/26 07:31:10;;;;;;;8.27;5.13;;;19.60;82.40;;;;;;5039744;28;20026;-73
2021/09/26 07:33:37;;;;;;;7.70;4.20;;;19.70;82.10;;;;;;5040334;28;20025;-70
2021/09/26 07:36:03;;;;;;;7.95;4.78;;;19.70;81.70;;;;;;5036497;28;20032;-70
2021/09/26 07:38:30;;;;;;;7.53;4.50;;;19.80;81.60;;;;;;5037920;28;20040;-74
2021/09/26 07:40:56;;;;;;;9.05;3.75;;;19.80;81.30;;;;;;5036576;28;20586;-74
2021/09/26 07:43:25;;;;;;;10.30;4.32;;;19.80;81.30;;;;;;5040792;28;20029;-75
2021/09/26 07:45:55;;;;;;;8.98;4.70;;;19.80;81.10;;;;;;5040684;28;20624;-75
2021/09/26 07:48:22;;;;;;;8.57;4.63;;;19.80;80.90;;;;;;5037553;28;20492;-77
2021/09/26 07:50:52;;;;;;;8.32;5.03;;;19.80;80.40;;;;;;5038200;28;20018;-77
2021/09/26 07:53:19;;;;;;;6.15;4.00;;;19.90;80.40;;;;;;5039623;28;20032;-77
2021/09/26 07:55:48;;;;;;;8.15;4.13;;;19.90;80.20;;;;;;5039597;28;20423;-76
2021/09/26 07:58:16;;;;;;;6.93;4.10;;;19.90;79.90;;;;;;5037535;28;20041;-72
2021/09/26 08:00:42;;;;;;;13.23;3.85;;;20.00;79.90;;;;;;5037168;28;20400;-71
2021/09/26 08:03:48;;;;;;;10.40;6.75;;;19.90;79.60;;;;;;5039992;28;20036;-74
2021/09/26 08:06:54;;;;;;;19.00;7.30;;;19.90;79.60;;;;;;5038515;28;20558;-74
2021/09/26 08:10:00;;;;;;;6.35;4.15;;;20.00;79.60;;;;;;5036972;28;20028;-73
2021/09/26 08:13:07;;;;;;;7.30;3.38;;;19.90;78.90;;;;;;5045396;28;20043;-75
2021/09/26 08:15:34;;;;;;;8.88;4.28;;;20.00;78.70;;;;;;5041396;28;20576;-76
2021/09/26 08:18:00;;;;;;;9.82;4.13;;;20.00;78.50;;;;;;5043647;28;20069;-74
2021/09/26 08:20:28;;;;;;;9.68;3.42;;;20.00;78.30;;;;;;5040445;28;20095;-72
2021/09/26 08:22:55;;;;;;;7.25;3.42;;;20.00;78.00;;;;;;5036120;28;20080;-74
2021/09/26 08:25:24;;;;;;;15.18;9.85;;;20.00;78.20;;;;;;5038934;28;20013;-74
2021/09/26 08:27:51;;;;;;;16.00;9.05;;;20.00;78.30;;;;;;5038965;28;20021;-74
2021/09/26 08:30:19;;;;;;;113.03;30.83;;;20.00;78.60;;;;;;5033337;28;20377;-76
2021/09/26 08:32:48;;;;;;;28.80;8.68;;;20.00;78.80;;;;;;5041414;28;20017;-81
2021/09/26 08:35:16;;;;;;;12.57;5.13;;;20.00;78.90;;;;;;5040513;28;20550;-69
2021/09/26 08:37:42;;;;;;;13.75;5.20;;;20.00;79.20;;;;;;5036838;28;20025;-74
2021/09/26 08:40:10;;;;;;;14.40;5.72;;;20.00;79.50;;;;;;5039512;28;20022;-70
2021/09/26 08:42:38;;;;;;;10.52;5.22;;;20.00;79.60;;;;;;5037878;28;20009;-73
2021/09/26 08:45:07;;;;;;;8.05;4.15;;;20.00;79.50;;;;;;5037924;28;20018;-71
2021/09/26 08:47:39;;;;;;;13.32;4.18;;;20.10;79.50;;;;;;5037017;28;20029;-76
2021/09/26 08:50:10;;;;;;;25.52;15.43;;;20.20;79.40;;;;;;5039444;28;20036;-82
2021/09/26 08:52:37;;;;;;;17.02;10.75;;;20.30;79.10;;;;;;5040512;28;20032;-74
2021/09/26 08:55:05;;;;;;;31.35;18.50;;;20.30;79.00;;;;;;5043345;28;20392;-77
2021/09/26 08:57:31;;;;;;;9.75;5.22;;;20.40;78.30;;;;;;5045908;28;20125;-83
2021/09/26 08:59:58;;;;;;;9.20;4.47;;;20.40;77.60;;;;;;5034759;28;20052;-81
2021/09/26 09:02:24;;;;;;;7.20;3.00;;;20.50;77.00;;;;;;5039443;28;20018;-75
2021/09/26 09:04:51;;;;;;;8.18;2.75;;;20.50;76.20;;;;;;5035622;28;20104;-83
2021/09/26 09:07:17;;;;;;;14.02;3.28;;;20.50;75.80;;;;;;5036893;28;20090;-75
2021/09/26 09:09:48;;;;;;;7.60;3.72;;;20.60;75.60;;;;;;5040997;28;20028;-74
2021/09/26 09:12:15;;;;;;;10.98;3.28;;;20.60;75.30;;;;;;5046720;28;20380;-73
2021/09/26 09:15:06;;;;;;;12.57;3.63;;;20.70;75.00;;;;;;5041011;28;20025;-79
2021/09/26 09:17:39;;;;;;;8.13;2.50;;;20.70;74.40;;;;;;5045336;28;20037;-76
2021/09/26 09:20:29;;;;;;;10.05;3.70;;;20.90;74.00;;;;;;5045382;28;20499;-73
2021/09/26 09:23:23;;;;;;;6.53;2.88;;;21.00;73.30;;;;;;5038494;28;20113;-78
2021/09/26 09:25:56;;;;;;;4.68;2.30;;;21.10;72.60;;;;;;5038928;28;20059;-75
2021/09/26 09:28:31;;;;;;;8.25;2.83;;;21.30;72.20;;;;;;5038610;28;20056;-88
2021/09/26 09:31:03;;;;;;;8.63;3.15;;;21.40;70.60;;;;;;5041476;28;20028;-82
2021/09/26 09:33:42;;;;;;;13.77;9.05;;;21.50;70.10;;;;;;5040555;28;20029;-75
2021/09/26 09:36:22;;;;;;;39.17;29.25;;;21.60;69.40;;;;;;5040302;28;20113;-77
2021/09/26 09:38:58;;;;;;;12.68;6.43;;;21.70;69.30;;;;;;5040444;28;20028;-80
2021/09/26 09:41:42;;;;;;;5.00;2.53;;;21.80;69.00;;;;;;5039511;28;20017;-74
2021/09/26 09:44:12;;;;;;;7.47;2.53;;;21.90;68.50;;;;;;5042159;28;20484;-75
2021/09/26 09:46:48;;;;;;;5.28;2.88;;;22.00;68.10;;;;;;5044479;28;20047;-75
2021/09/26 09:49:22;;;;;;;3.97;2.42;;;22.00;68.00;;;;;;5039221;28;20048;-75
2021/09/26 09:52:00;;;;;;;5.35;2.65;;;22.10;67.70;;;;;;5044065;28;20423;-74
2021/09/26 09:54:31;;;;;;;6.97;2.72;;;22.20;67.30;;;;;;5043575;28;20028;-75
2021/09/26 09:57:09;;;;;;;5.28;2.47;;;22.30;66.90;;;;;;5037552;28;20025;-75
2021/09/26 09:59:36;;;;;;;8.52;2.38;;;22.50;66.80;;;;;;5039112;28;20091;-74
2021/09/26 10:02:04;;;;;;;10.25;2.95;;;22.60;66.10;;;;;;5037717;28;20013;-74
2021/09/26 10:04:42;;;;;;;8.60;2.75;;;22.60;65.30;;;;;;5037398;28;20029;-75
2021/09/26 10:07:30;;;;;;;6.22;2.80;;;22.70;64.60;;;;;;5037049;28;20112;-73
2021/09/26 10:09:57;;;;;;;6.20;2.63;;;22.80;64.30;;;;;;5031673;28;20641;-74
2021/09/26 10:12:26;;;;;;;13.55;3.67;;;22.80;64.00;;;;;;5034833;28;20045;-76
2021/09/26 10:14:59;;;;;;;9.55;3.05;;;22.90;64.00;;;;;;5036126;28;20013;-73
2021/09/26 10:17:26;;;;;;;8.38;2.17;;;22.90;64.10;;;;;;5039599;28;20031;-75
2021/09/26 10:19:53;;;;;;;10.82;2.70;;;23.00;63.90;;;;;;5039087;28;20388;-73
2021/09/26 10:22:20;;;;;;;10.40;4.80;;;23.10;63.50;;;;;;5041020;28;20017;-75
2021/09/26 10:25:27;;;;;;;4.28;3.25;;;23.20;63.70;;;;;;5039734;28;20492;-74
2021/09/26 10:28:12;;;;;;;;;;;23.30;62.90;;;;;;5045076;28;20409;-75
2021/09/26 10:31:19;;;;;;;5.75;2.30;;;23.40;62.60;;;;;;5046726;28;19905;-74
2021/09/26 10:34:25;;;;;;;5.85;2.40;;;23.50;62.30;;;;;;5042911;28;20034;-75
2021/09/26 10:37:31;;;;;;;13.85;2.47;;;23.60;61.50;;;;;;5040534;28;20028;-74
2021/09/26 10:40:37;;;;;;;6.30;2.75;;;23.70;61.20;;;;;;5044975;28;20072;-75
2021/09/26 10:43:49;;;;;;;6.93;2.78;;;23.70;60.70;;;;;;5048011;28;20051;-73
2021/09/26 10:47:04;;;;;;;6.32;2.25;;;23.80;61.10;;;;;;5047793;28;20029;-73
2021/09/26 10:50:32;;;;;;;8.65;2.50;;;23.90;61.10;;;;;;5043044;28;20021;-73
2021/09/26 10:53:38;;;;;;;9.07;2.97;;;24.00;60.50;;;;;;5041259;28;20033;-76
2021/09/26 10:56:23;;;;;;;;;;;24.00;63.00;;;;;;5049097;28;20021;-75
2021/09/26 10:59:35;;;;;;;12.40;3.50;;;24.10;63.00;;;;;;5045347;28;20380;-73
2021/09/26 11:02:21;;;;;;;12.30;4.82;;;24.20;62.90;;;;;;5036390;28;20059;-74
2021/09/26 11:05:28;;;;;;;9.73;3.80;;;24.20;63.10;;;;;;5045728;28;20032;-75
2021/09/26 11:08:26;;;;;;;10.18;2.83;;;24.20;63.10;;;;;;5045495;28;20021;-75
2021/09/26 11:11:37;;;;;;;8.65;3.20;;;24.20;63.10;;;;;;5049954;28;20468;-75
2021/09/26 11:14:43;;;;;;;11.43;3.85;;;24.20;63.40;;;;;;5048303;28;20021;-73
2021/09/26 11:18:04;;;;;;;6.82;2.90;;;24.20;63.50;;;;;;5050477;28;20472;-75
2021/09/26 11:20:31;;;;;;;20.17;3.80;;;24.20;63.60;;;;;;5047051;28;20037;-73
2021/09/26 11:23:07;;;;;;;6.72;3.22;;;24.30;63.20;;;;;;5045618;28;20032;-73
2021/09/26 11:26:04;;;;;;;9.75;4.03;;;24.30;63.10;;;;;;5047698;28;20480;-73
2021/09/26 11:28:34;;;;;;;9.27;3.90;;;24.30;62.30;;;;;;5065617;28;20107;-75
2021/09/26 11:31:30;;;;;;;8.15;3.10;;;24.40;61.90;;;;;;5048096;28;20021;-74
2021/09/26 11:33:59;;;;;;;18.13;4.57;;;24.30;61.70;;;;;;5043770;28;20029;-75
2021/09/26 11:36:28;;;;;;;8.75;3.72;;;24.30;62.00;;;;;;5041105;28;20059;-73
2021/09/26 11:38:56;;;;;;;9.20;3.17;;;24.40;62.10;;;;;;5046847;28;20033;-73
2021/09/26 11:41:39;;;;;;;10.73;3.40;;;24.30;61.30;;;;;;5045231;28;20020;-73
2021/09/26 11:44:07;;;;;;;10.70;2.78;;;24.30;61.00;;;;;;5043720;28;20013;-74
2021/09/26 11:46:35;;;;;;;7.35;3.20;;;24.30;61.20;;;;;;5042058;28;20024;-75
2021/09/26 11:49:07;;;;;;;10.85;3.38;;;24.30;61.10;;;;;;5042174;28;20021;-74
2021/09/26 11:51:35;;;;;;;11.05;3.03;;;24.40;61.20;;;;;;5044828;28;20550;-74
2021/09/26 11:54:03;;;;;;;14.63;3.20;;;24.40;60.80;;;;;;5044595;28;20027;-74
2021/09/26 11:56:35;;;;;;;10.60;3.17;;;24.50;60.30;;;;;;5043714;28;20113;-75
2021/09/26 11:59:09;;;;;;;5.93;3.15;;;24.60;60.30;;;;;;5042543;28;20080;-73
2021/09/26 12:01:47;;;;;;;9.85;3.90;;;24.60;59.80;;;;;;5043611;28;20358;-73
2021/09/26 12:04:24;;;;;;;9.00;2.83;;;24.70;59.70;;;;;;5043931;28;20023;-73
2021/09/26 12:07:01;;;;;;;11.25;3.55;;;24.70;59.50;;;;;;5041837;28;20028;-73
2021/09/26 12:09:39;;;;;;;9.65;3.78;;;24.70;59.50;;;;;;5045168;28;20037;-73
2021/09/26 12:12:27;;;;;;;9.88;3.20;;;24.80;59.30;;;;;;5047796;28;20035;-73
2021/09/26 12:15:06;;;;;;;6.85;2.80;;;24.90;59.20;;;;;;5044694;28;20033;-73
2021/09/26 12:17:36;;;;;;;14.95;3.85;;;25.00;58.70;;;;;;5045767;28;20476;-73
2021/09/26 12:20:09;;;;;;;13.60;5.85;;;24.90;58.50;;;;;;5045475;28;20029;-72
2021/09/26 12:22:37;;;;;;;9.93;3.30;;;25.00;58.20;;;;;;5046516;28;20036;-75
2021/09/26 12:25:30;;;;;;;12.50;4.15;;;25.00;57.90;;;;;;5046563;28;20468;-73
2021/09/26 12:28:21;;;;;;;8.52;2.75;;;25.00;57.70;;;;;;5044753;28;21112;-74
2021/09/26 12:30:51;;;;;;;10.20;3.38;;;25.00;57.80;;;;;;5049446;28;20490;-74
2021/09/26 12:33:47;;;;;;;7.95;2.83;;;25.00;58.00;;;;;;5041277;28;20017;-71
2021/09/26 12:36:56;;;;;;;9.80;3.50;;;25.00;57.80;;;;;;5042062;28;20593;-74
2021/09/26 12:40:02;;;;;;;11.93;3.03;;;25.10;57.60;;;;;;5038042;28;20037;-69
2021/09/26 12:43:08;;;;;;;9.55;3.63;;;25.10;57.20;;;;;;5042082;28;20034;-70
2021/09/26 12:46:00;;;;;;;;;;;25.10;57.60;;;;;;5044289;28;20018;-73
2021/09/26 12:49:06;;;;;;;11.57;3.22;;;25.10;57.30;;;;;;5041228;28;19908;-74
2021/09/26 12:51:52;;;;;;;;;;;25.20;57.30;;;;;;5039554;28;20026;-70
2021/09/26 12:55:01;;;;;;;9.95;3.63;;;25.20;57.20;;;;;;5040293;28;19939;-72
2021/09/26 12:58:07;;;;;;;5.03;3.60;;;25.20;57.20;;;;;;5042997;28;20680;-69
2021/09/26 13:00:53;;;;;;;;;;;25.20;56.90;;;;;;5043518;28;20041;-73
2021/09/26 13:04:02;;;;;;;17.73;3.30;;;25.10;57.10;;;;;;5045434;28;19909;-71
2021/09/26 13:07:27;;;;;;;8.65;3.00;;;25.20;57.60;;;;;;5035181;28;20609;-70
2021/09/26 13:10:19;;;;;;;7.18;3.20;;;25.30;57.20;;;;;;5045861;28;20098;-73
2021/09/26 13:13:29;;;;;;;10.75;2.97;;;25.20;57.00;;;;;;5043967;28;20033;-72
2021/09/26 13:16:18;;;;;;;8.02;2.55;;;25.20;56.60;;;;;;5047535;28;20025;-70
2021/09/26 13:19:22;;;;;;;7.00;2.38;;;25.20;57.10;;;;;;5045438;28;20037;-72
2021/09/26 13:22:43;;;;;;;4.55;2.80;;;25.30;57.00;;;;;;5041115;28;20021;-72
2021/09/26 13:25:13;;;;;;;8.00;2.78;;;25.40;56.20;;;;;;5044503;28;20028;-75